Terminal Aerodrome Forecast
Issued by NWS

Current Version | Previous Version | Text Only | Print | Product List | Glossary On
Versions: 1 2 3 4 5 6 7 8 9 10 11 12 13 14 15
466
FTUS46 KMFR 271740
TAFRBG
TAF
KRBG 271740Z 2718/2818 05006KT P6SM SKC
     FM272200 01012G20KT P6SM SKC
     FM280300 35004KT P6SM SKC=

USA.gov is the U.S. government's official web portal to all federal, state and local government web resources and services.